sensor_id;sensor_type;location;lat;lon;timestamp;temperature;humidity
11304;DHT22;5707;49.588;12.148;2023-06-01T00:01:46;8.00;99.90
11304;DHT22;5707;49.588;12.148;2023-06-01T00:04:11;7.90;99.90
11304;DHT22;5707;49.588;12.148;2023-06-01T00:06:41;7.80;99.90
11304;DHT22;5707;49.588;12.148;2023-06-01T00:09:06;7.80;99.90
11304;DHT22;5707;49.588;12.148;2023-06-01T00:11:33;7.80;99.90
11304;DHT22;5707;49.588;12.148;2023-06-01T00:13:58;7.80;99.90
11304;DHT22;5707;49.588;12.148;2023-06-01T00:16:24;7.80;99.90
11304;DHT22;5707;49.588;12.148;2023-06-01T00:18:50;7.80;99.90
11304;DHT22;5707;49.588;12.148;2023-06-01T00:21:18;7.70;99.90
11304;DHT22;5707;49.588;12.148;2023-06-01T00:23:44;7.70;99.90
11304;DHT22;5707;49.588;12.148;2023-06-01T00:26:10;7.60;99.90
11304;DHT22;5707;49.588;12.148;2023-06-01T00:28:35;7.50;99.90
11304;DHT22;5707;49.588;12.148;2023-06-01T00:31:01;7.40;99.90
11304;DHT22;5707;49.588;12.148;2023-06-01T00:33:27;7.30;99.90
11304;DHT22;5707;49.588;12.148;2023-06-01T00:35:52;7.20;99.90
11304;DHT22;5707;49.588;12.148;2023-06-01T00:38:18;7.20;99.90
11304;DHT22;5707;49.588;12.148;2023-06-01T00:40:44;7.10;99.90
11304;DHT22;5707;49.588;12.148;2023-06-01T00:43:10;7.10;99.90
11304;DHT22;5707;49.588;12.148;2023-06-01T00:45:36;7.00;99.90
11304;DHT22;5707;49.588;12.148;2023-06-01T00:48:03;6.80;99.90
11304;DHT22;5707;49.588;12.148;2023-06-01T00:50:30;6.70;99.90
11304;DHT22;5707;49.588;12.148;2023-06-01T00:52:57;6.70;99.90
11304;DHT22;5707;49.588;12.148;2023-06-01T00:55:24;6.70;99.90
11304;DHT22;5707;49.588;12.148;2023-06-01T00:57:50;6.70;99.90
11304;DHT22;5707;49.588;12.148;2023-06-01T01:00:17;6.70;99.90
11304;DHT22;5707;49.588;12.148;2023-06-01T01:02:43;6.70;99.90
11304;DHT22;5707;49.588;12.148;2023-06-01T01:05:16;6.60;99.90
11304;DHT22;5707;49.588;12.148;2023-06-01T01:10:41;6.50;99.90
11304;DHT22;5707;49.588;12.148;2023-06-01T01:13:14;6.50;99.90
11304;DHT22;5707;49.588;12.148;2023-06-01T01:18:42;6.40;99.90
11304;DHT22;5707;49.588;12.148;2023-06-01T01:21:12;6.40;99.90
11304;DHT22;5707;49.588;12.148;2023-06-01T01:29:18;6.30;99.90
11304;DHT22;5707;49.588;12.148;2023-06-01T01:31:49;6.30;99.90
11304;DHT22;5707;49.588;12.148;2023-06-01T01:34:15;6.30;99.90
11304;DHT22;5707;49.588;12.148;2023-06-01T01:36:43;6.30;99.90
11304;DHT22;5707;49.588;12.148;2023-06-01T01:39:08;6.20;99.90
11304;DHT22;5707;49.588;12.148;2023-06-01T01:41:34;6.30;99.90
11304;DHT22;5707;49.588;12.148;2023-06-01T01:43:59;6.20;99.90
11304;DHT22;5707;49.588;12.148;2023-06-01T01:46:36;6.20;99.90
11304;DHT22;5707;49.588;12.148;2023-06-01T01:49:18;6.10;99.90
11304;DHT22;5707;49.588;12.148;2023-06-01T01:54:28;6.00;99.90
11304;DHT22;5707;49.588;12.148;2023-06-01T01:56:57;5.90;99.90
11304;DHT22;5707;49.588;12.148;2023-06-01T01:59:23;5.80;99.90
11304;DHT22;5707;49.588;12.148;2023-06-01T02:01:50;5.70;99.90
11304;DHT22;5707;49.588;12.148;2023-06-01T02:04:15;5.70;99.90
11304;DHT22;5707;49.588;12.148;2023-06-01T02:06:41;5.70;99.90
11304;DHT22;5707;49.588;12.148;2023-06-01T02:09:06;5.60;99.90
11304;DHT22;5707;49.588;12.148;2023-06-01T02:11:33;5.60;99.90
11304;DHT22;5707;49.588;12.148;2023-06-01T02:13:59;5.60;99.90
11304;DHT22;5707;49.588;12.148;2023-06-01T02:16:25;5.60;99.90
11304;DHT22;5707;49.588;12.148;2023-06-01T02:18:51;5.60;99.90
11304;DHT22;5707;49.588;12.148;2023-06-01T02:21:17;5.50;99.90
11304;DHT22;5707;49.588;12.148;2023-06-01T02:23:42;5.50;99.90
11304;DHT22;5707;49.588;12.148;2023-06-01T02:26:08;5.50;99.90
11304;DHT22;5707;49.588;12.148;2023-06-01T02:28:39;5.50;99.90
11304;DHT22;5707;49.588;12.148;2023-06-01T02:31:06;5.50;99.90
11304;DHT22;5707;49.588;12.148;2023-06-01T02:33:32;5.50;99.90
11304;DHT22;5707;49.588;12.148;2023-06-01T02:35:58;5.50;99.90
11304;DHT22;5707;49.588;12.148;2023-06-01T02:38:24;5.50;99.90
11304;DHT22;5707;49.588;12.148;2023-06-01T02:40:49;5.40;99.90
11304;DHT22;5707;49.588;12.148;2023-06-01T02:43:15;5.30;99.90
11304;DHT22;5707;49.588;12.148;2023-06-01T02:45:40;5.20;99.90
11304;DHT22;5707;49.588;12.148;2023-06-01T02:48:06;5.20;99.90
11304;DHT22;5707;49.588;12.148;2023-06-01T02:50:32;5.20;99.90
11304;DHT22;5707;49.588;12.148;2023-06-01T02:52:57;5.10;99.90
11304;DHT22;5707;49.588;12.148;2023-06-01T02:55:23;5.10;99.90
11304;DHT22;5707;49.588;12.148;2023-06-01T02:57:48;5.00;99.90
11304;DHT22;5707;49.588;12.148;2023-06-01T03:00:14;5.00;99.90
11304;DHT22;5707;49.588;12.148;2023-06-01T03:02:46;5.00;99.90
11304;DHT22;5707;49.588;12.148;2023-06-01T03:05:13;5.00;99.90
11304;DHT22;5707;49.588;12.148;2023-06-01T03:07:43;5.00;99.90
11304;DHT22;5707;49.588;12.148;2023-06-01T03:10:09;5.10;99.90
11304;DHT22;5707;49.588;12.148;2023-06-01T03:12:35;5.20;99.90
11304;DHT22;5707;49.588;12.148;2023-06-01T03:15:01;5.10;99.90
11304;DHT22;5707;49.588;12.148;2023-06-01T03:17:27;5.10;99.90
11304;DHT22;5707;49.588;12.148;2023-06-01T03:19:52;5.20;99.90
11304;DHT22;5707;49.588;12.148;2023-06-01T03:22:18;5.20;99.90
11304;DHT22;5707;49.588;12.148;2023-06-01T03:24:43;5.30;99.90
11304;DHT22;5707;49.588;12.148;2023-06-01T03:27:09;5.30;99.90
11304;DHT22;5707;49.588;12.148;2023-06-01T03:29:36;5.30;99.90
11304;DHT22;5707;49.588;12.148;2023-06-01T03:32:02;5.30;99.90
11304;DHT22;5707;49.588;12.148;2023-06-01T03:34:28;5.30;99.90
11304;DHT22;5707;49.588;12.148;2023-06-01T03:36:53;5.40;99.90
11304;DHT22;5707;49.588;12.148;2023-06-01T03:39:19;5.40;99.90
11304;DHT22;5707;49.588;12.148;2023-06-01T03:41:45;5.50;99.90
11304;DHT22;5707;49.588;12.148;2023-06-01T03:44:11;5.50;99.90
11304;DHT22;5707;49.588;12.148;2023-06-01T03:46:38;5.60;99.90
11304;DHT22;5707;49.588;12.148;2023-06-01T03:49:04;5.70;99.90
11304;DHT22;5707;49.588;12.148;2023-06-01T03:51:30;5.90;99.90
11304;DHT22;5707;49.588;12.148;2023-06-01T03:53:56;6.10;99.90
11304;DHT22;5707;49.588;12.148;2023-06-01T03:56:21;6.20;99.90
11304;DHT22;5707;49.588;12.148;2023-06-01T03:58:48;6.30;99.90
11304;DHT22;5707;49.588;12.148;2023-06-01T04:01:13;6.50;99.90
11304;DHT22;5707;49.588;12.148;2023-06-01T04:03:42;6.60;99.90
11304;DHT22;5707;49.588;12.148;2023-06-01T04:06:09;6.80;99.90
11304;DHT22;5707;49.588;12.148;2023-06-01T04:08:39;6.90;99.90
11304;DHT22;5707;49.588;12.148;2023-06-01T04:11:17;7.00;99.90
11304;DHT22;5707;49.588;12.148;2023-06-01T04:13:44;7.30;99.90
11304;DHT22;5707;49.588;12.148;2023-06-01T04:16:10;7.40;99.90
11304;DHT22;5707;49.588;12.148;2023-06-01T04:18:36;7.80;99.90
11304;DHT22;5707;49.588;12.148;2023-06-01T04:21:02;8.70;99.90
11304;DHT22;5707;49.588;12.148;2023-06-01T04:23:27;9.50;99.90
11304;DHT22;5707;49.588;12.148;2023-06-01T04:25:53;10.00;99.90
11304;DHT22;5707;49.588;12.148;2023-06-01T04:28:28;10.40;99.90
11304;DHT22;5707;49.588;12.148;2023-06-01T04:30:55;11.10;99.90
11304;DHT22;5707;49.588;12.148;2023-06-01T04:33:21;11.70;99.90
11304;DHT22;5707;49.588;12.148;2023-06-01T04:35:48;12.40;99.90
11304;DHT22;5707;49.588;12.148;2023-06-01T04:38:13;12.80;99.90
11304;DHT22;5707;49.588;12.148;2023-06-01T04:40:42;13.30;99.90
11304;DHT22;5707;49.588;12.148;2023-06-01T04:43:10;13.70;99.90
11304;DHT22;5707;49.588;12.148;2023-06-01T04:45:37;14.20;99.90
11304;DHT22;5707;49.588;12.148;2023-06-01T04:48:04;14.70;99.90
11304;DHT22;5707;49.588;12.148;2023-06-01T04:50:34;15.40;99.90
11304;DHT22;5707;49.588;12.148;2023-06-01T04:53:00;16.00;99.90
11304;DHT22;5707;49.588;12.148;2023-06-01T04:55:26;16.60;99.90
11304;DHT22;5707;49.588;12.148;2023-06-01T04:57:52;17.00;99.90
11304;DHT22;5707;49.588;12.148;2023-06-01T05:00:18;17.40;98.60
11304;DHT22;5707;49.588;12.148;2023-06-01T05:02:44;17.80;97.40
11304;DHT22;5707;49.588;12.148;2023-06-01T05:05:12;18.10;96.40
11304;DHT22;5707;49.588;12.148;2023-06-01T05:07:39;18.30;95.10
11304;DHT22;5707;49.588;12.148;2023-06-01T05:10:06;18.50;94.50
11304;DHT22;5707;49.588;12.148;2023-06-01T05:12:33;18.70;93.80
11304;DHT22;5707;49.588;12.148;2023-06-01T05:14:59;18.90;93.40
11304;DHT22;5707;49.588;12.148;2023-06-01T05:17:25;18.90;93.60
11304;DHT22;5707;49.588;12.148;2023-06-01T05:19:50;19.00;93.30
11304;DHT22;5707;49.588;12.148;2023-06-01T05:22:16;18.90;93.40
11304;DHT22;5707;49.588;12.148;2023-06-01T05:24:42;18.80;94.00
11304;DHT22;5707;49.588;12.148;2023-06-01T05:27:08;18.70;93.20
11304;DHT22;5707;49.588;12.148;2023-06-01T05:29:33;18.80;93.90
11304;DHT22;5707;49.588;12.148;2023-06-01T05:31:59;19.10;94.00
11304;DHT22;5707;49.588;12.148;2023-06-01T05:34:25;19.10;93.60
11304;DHT22;5707;49.588;12.148;2023-06-01T05:36:50;18.50;94.30
11304;DHT22;5707;49.588;12.148;2023-06-01T05:39:16;17.70;95.60
11304;DHT22;5707;49.588;12.148;2023-06-01T05:41:42;17.20;96.00
11304;DHT22;5707;49.588;12.148;2023-06-01T05:44:07;16.80;97.10
11304;DHT22;5707;49.588;12.148;2023-06-01T05:46:33;16.50;98.10
11304;DHT22;5707;49.588;12.148;2023-06-01T05:48:59;16.30;99.50
11304;DHT22;5707;49.588;12.148;2023-06-01T05:51:25;16.10;99.90
11304;DHT22;5707;49.588;12.148;2023-06-01T05:53:51;16.00;99.90
11304;DHT22;5707;49.588;12.148;2023-06-01T05:56:17;16.00;99.90
11304;DHT22;5707;49.588;12.148;2023-06-01T05:58:43;16.10;99.90
11304;DHT22;5707;49.588;12.148;2023-06-01T06:01:09;16.20;99.90
11304;DHT22;5707;49.588;12.148;2023-06-01T06:03:35;16.40;99.80
11304;DHT22;5707;49.588;12.148;2023-06-01T06:06:01;16.50;99.00
11304;DHT22;5707;49.588;12.148;2023-06-01T06:08:27;16.60;98.70
11304;DHT22;5707;49.588;12.148;2023-06-01T06:10:53;16.70;98.60
11304;DHT22;5707;49.588;12.148;2023-06-01T06:13:18;16.90;97.90
11304;DHT22;5707;49.588;12.148;2023-06-01T06:15:44;17.10;97.60
11304;DHT22;5707;49.588;12.148;2023-06-01T06:18:10;17.40;97.60
11304;DHT22;5707;49.588;12.148;2023-06-01T06:20:36;17.50;97.00
11304;DHT22;5707;49.588;12.148;2023-06-01T06:23:01;17.60;96.60
11304;DHT22;5707;49.588;12.148;2023-06-01T06:25:27;17.80;97.40
11304;DHT22;5707;49.588;12.148;2023-06-01T06:27:52;17.90;95.00
11304;DHT22;5707;49.588;12.148;2023-06-01T06:30:18;17.80;94.40
11304;DHT22;5707;49.588;12.148;2023-06-01T06:32:44;18.00;94.80
11304;DHT22;5707;49.588;12.148;2023-06-01T06:35:10;18.20;95.40
11304;DHT22;5707;49.588;12.148;2023-06-01T06:37:41;18.40;95.10
11304;DHT22;5707;49.588;12.148;2023-06-01T06:40:08;18.60;95.10
11304;DHT22;5707;49.588;12.148;2023-06-01T06:42:33;18.70;94.80
11304;DHT22;5707;49.588;12.148;2023-06-01T06:44:59;18.90;94.50
11304;DHT22;5707;49.588;12.148;2023-06-01T06:47:24;19.30;94.30
11304;DHT22;5707;49.588;12.148;2023-06-01T06:49:51;19.40;93.70
11304;DHT22;5707;49.588;12.148;2023-06-01T06:52:16;19.50;94.30
11304;DHT22;5707;49.588;12.148;2023-06-01T06:54:42;19.80;94.20
11304;DHT22;5707;49.588;12.148;2023-06-01T06:57:08;19.90;94.10
11304;DHT22;5707;49.588;12.148;2023-06-01T06:59:34;20.10;93.80
11304;DHT22;5707;49.588;12.148;2023-06-01T07:02:00;20.30;94.10
11304;DHT22;5707;49.588;12.148;2023-06-01T07:04:27;20.20;93.10
11304;DHT22;5707;49.588;12.148;2023-06-01T07:06:53;20.10;93.90
11304;DHT22;5707;49.588;12.148;2023-06-01T07:09:19;20.10;95.20
11304;DHT22;5707;49.588;12.148;2023-06-01T07:11:44;20.20;94.00
11304;DHT22;5707;49.588;12.148;2023-06-01T07:14:11;20.20;91.90
11304;DHT22;5707;49.588;12.148;2023-06-01T07:16:36;20.30;92.10
11304;DHT22;5707;49.588;12.148;2023-06-01T07:19:02;20.50;92.80
11304;DHT22;5707;49.588;12.148;2023-06-01T07:21:28;20.70;92.60
11304;DHT22;5707;49.588;12.148;2023-06-01T07:23:54;20.90;91.60
11304;DHT22;5707;49.588;12.148;2023-06-01T07:26:19;21.00;91.50
11304;DHT22;5707;49.588;12.148;2023-06-01T07:28:45;21.10;92.50
11304;DHT22;5707;49.588;12.148;2023-06-01T07:31:11;21.10;90.40
11304;DHT22;5707;49.588;12.148;2023-06-01T07:33:37;21.00;90.40
11304;DHT22;5707;49.588;12.148;2023-06-01T07:36:05;20.90;91.40
11304;DHT22;5707;49.588;12.148;2023-06-01T07:38:31;20.90;92.00
11304;DHT22;5707;49.588;12.148;2023-06-01T07:40:58;21.00;90.70
11304;DHT22;5707;49.588;12.148;2023-06-01T07:43:24;21.10;90.60
11304;DHT22;5707;49.588;12.148;2023-06-01T07:45:49;21.10;90.80
11304;DHT22;5707;49.588;12.148;2023-06-01T07:48:15;21.10;90.70
11304;DHT22;5707;49.588;12.148;2023-06-01T07:50:41;21.10;88.40
11304;DHT22;5707;49.588;12.148;2023-06-01T07:53:07;21.10;88.60
11304;DHT22;5707;49.588;12.148;2023-06-01T07:55:33;21.20;90.10
11304;DHT22;5707;49.588;12.148;2023-06-01T07:57:58;21.20;90.00
11304;DHT22;5707;49.588;12.148;2023-06-01T08:00:24;21.30;90.10
11304;DHT22;5707;49.588;12.148;2023-06-01T08:02:50;21.30;85.30
11304;DHT22;5707;49.588;12.148;2023-06-01T08:05:16;21.20;87.90
11304;DHT22;5707;49.588;12.148;2023-06-01T08:07:43;21.20;88.70
11304;DHT22;5707;49.588;12.148;2023-06-01T08:10:11;21.20;88.20
11304;DHT22;5707;49.588;12.148;2023-06-01T08:12:36;21.30;84.90
11304;DHT22;5707;49.588;12.148;2023-06-01T08:15:03;21.30;85.40
11304;DHT22;5707;49.588;12.148;2023-06-01T08:17:29;21.50;86.50
11304;DHT22;5707;49.588;12.148;2023-06-01T08:19:55;21.60;86.00
11304;DHT22;5707;49.588;12.148;2023-06-01T08:22:22;21.70;83.80
11304;DHT22;5707;49.588;12.148;2023-06-01T08:24:49;21.90;82.60
11304;DHT22;5707;49.588;12.148;2023-06-01T08:27:18;22.10;80.20
11304;DHT22;5707;49.588;12.148;2023-06-01T08:29:45;22.30;82.20
11304;DHT22;5707;49.588;12.148;2023-06-01T08:32:12;22.40;80.70
11304;DHT22;5707;49.588;12.148;2023-06-01T08:34:38;22.50;86.10
11304;DHT22;5707;49.588;12.148;2023-06-01T08:37:04;22.70;80.30
11304;DHT22;5707;49.588;12.148;2023-06-01T08:39:30;22.80;76.80
11304;DHT22;5707;49.588;12.148;2023-06-01T08:44:51;23.30;75.70
11304;DHT22;5707;49.588;12.148;2023-06-01T08:47:18;23.50;70.10
11304;DHT22;5707;49.588;12.148;2023-06-01T08:49:45;23.50;64.60
11304;DHT22;5707;49.588;12.148;2023-06-01T08:52:16;23.60;66.50
11304;DHT22;5707;49.588;12.148;2023-06-01T08:54:44;23.70;60.10
11304;DHT22;5707;49.588;12.148;2023-06-01T08:57:11;23.80;56.90
11304;DHT22;5707;49.588;12.148;2023-06-01T08:59:37;24.10;61.70
11304;DHT22;5707;49.588;12.148;2023-06-01T09:02:04;24.30;67.60
11304;DHT22;5707;49.588;12.148;2023-06-01T09:04:32;24.50;53.80
11304;DHT22;5707;49.588;12.148;2023-06-01T09:06:59;24.50;50.50
11304;DHT22;5707;49.588;12.148;2023-06-01T09:09:25;24.70;49.80
11304;DHT22;5707;49.588;12.148;2023-06-01T09:14:47;25.10;47.50
11304;DHT22;5707;49.588;12.148;2023-06-01T09:17:23;25.20;45.50
11304;DHT22;5707;49.588;12.148;2023-06-01T09:19:54;25.10;47.60
11304;DHT22;5707;49.588;12.148;2023-06-01T09:22:23;25.00;44.80
11304;DHT22;5707;49.588;12.148;2023-06-01T09:24:59;25.00;44.70
11304;DHT22;5707;49.588;12.148;2023-06-01T09:27:25;25.10;42.60
11304;DHT22;5707;49.588;12.148;2023-06-01T09:29:58;25.30;44.90
11304;DHT22;5707;49.588;12.148;2023-06-01T09:32:26;25.70;45.40
11304;DHT22;5707;49.588;12.148;2023-06-01T09:34:52;25.90;44.50
11304;DHT22;5707;49.588;12.148;2023-06-01T09:37:20;25.70;41.30
11304;DHT22;5707;49.588;12.148;2023-06-01T09:39:45;25.40;42.50
11304;DHT22;5707;49.588;12.148;2023-06-01T09:42:11;25.50;42.20
11304;DHT22;5707;49.588;12.148;2023-06-01T09:44:41;25.60;42.60
11304;DHT22;5707;49.588;12.148;2023-06-01T09:47:09;26.00;41.00
11304;DHT22;5707;49.588;12.148;2023-06-01T09:54:37;26.50;39.50
11304;DHT22;5707;49.588;12.148;2023-06-01T09:57:04;26.40;38.40
11304;DHT22;5707;49.588;12.148;2023-06-01T09:59:44;26.50;36.00
11304;DHT22;5707;49.588;12.148;2023-06-01T10:02:19;26.80;35.40
11304;DHT22;5707;49.588;12.148;2023-06-01T10:04:48;27.40;33.50
11304;DHT22;5707;49.588;12.148;2023-06-01T10:07:16;27.90;33.00
11304;DHT22;5707;49.588;12.148;2023-06-01T10:09:44;28.10;31.70
11304;DHT22;5707;49.588;12.148;2023-06-01T10:12:11;28.30;30.00
11304;DHT22;5707;49.588;12.148;2023-06-01T10:14:37;28.40;29.20
11304;DHT22;5707;49.588;12.148;2023-06-01T10:17:04;28.60;30.70
11304;DHT22;5707;49.588;12.148;2023-06-01T10:19:30;29.10;28.40
11304;DHT22;5707;49.588;12.148;2023-06-01T10:21:59;29.20;26.20
11304;DHT22;5707;49.588;12.148;2023-06-01T10:24:26;29.40;24.40
11304;DHT22;5707;49.588;12.148;2023-06-01T10:29:18;29.80;21.50
11304;DHT22;5707;49.588;12.148;2023-06-01T10:31:44;29.90;21.70
11304;DHT22;5707;49.588;12.148;2023-06-01T10:34:11;30.00;21.70
11304;DHT22;5707;49.588;12.148;2023-06-01T10:39:28;30.00;17.50
11304;DHT22;5707;49.588;12.148;2023-06-01T10:41:56;29.50;17.50
11304;DHT22;5707;49.588;12.148;2023-06-01T10:52:35;29.80;15.80
11304;DHT22;5707;49.588;12.148;2023-06-01T10:57:45;30.00;14.30
11304;DHT22;5707;49.588;12.148;2023-06-01T11:00:18;30.10;14.20
11304;DHT22;5707;49.588;12.148;2023-06-01T11:02:56;30.10;14.20
11304;DHT22;5707;49.588;12.148;2023-06-01T11:05:46;30.20;13.80
11304;DHT22;5707;49.588;12.148;2023-06-01T11:13:17;30.70;14.00
11304;DHT22;5707;49.588;12.148;2023-06-01T11:21:17;31.00;12.60
11304;DHT22;5707;49.588;12.148;2023-06-01T11:23:44;30.90;13.40
11304;DHT22;5707;49.588;12.148;2023-06-01T11:26:14;30.70;12.30
11304;DHT22;5707;49.588;12.148;2023-06-01T11:28:41;30.40;12.70
11304;DHT22;5707;49.588;12.148;2023-06-01T11:31:15;30.00;13.50
11304;DHT22;5707;49.588;12.148;2023-06-01T11:33:52;29.70;14.70
11304;DHT22;5707;49.588;12.148;2023-06-01T11:36:19;29.60;14.60
11304;DHT22;5707;49.588;12.148;2023-06-01T11:38:46;29.80;14.70
11304;DHT22;5707;49.588;12.148;2023-06-01T11:41:11;29.90;13.40
11304;DHT22;5707;49.588;12.148;2023-06-01T11:43:37;29.50;13.40
11304;DHT22;5707;49.588;12.148;2023-06-01T11:46:04;28.90;14.00
11304;DHT22;5707;49.588;12.148;2023-06-01T11:48:31;28.60;13.00
11304;DHT22;5707;49.588;12.148;2023-06-01T11:50:57;28.70;14.20
11304;DHT22;5707;49.588;12.148;2023-06-01T11:53:26;28.90;14.50
11304;DHT22;5707;49.588;12.148;2023-06-01T11:55:54;29.20;15.40
11304;DHT22;5707;49.588;12.148;2023-06-01T11:58:24;28.80;15.20
11304;DHT22;5707;49.588;12.148;2023-06-01T12:00:50;28.40;14.80
11304;DHT22;5707;49.588;12.148;2023-06-01T12:03:16;28.30;17.00
11304;DHT22;5707;49.588;12.148;2023-06-01T12:05:42;28.70;16.50
11304;DHT22;5707;49.588;12.148;2023-06-01T12:08:24;28.60;16.10
11304;DHT22;5707;49.588;12.148;2023-06-01T12:10:51;28.40;15.90
11304;DHT22;5707;49.588;12.148;2023-06-01T12:13:19;28.30;15.10
11304;DHT22;5707;49.588;12.148;2023-06-01T12:15:46;28.20;14.90
11304;DHT22;5707;49.588;12.148;2023-06-01T12:18:12;28.20;14.40
11304;DHT22;5707;49.588;12.148;2023-06-01T12:20:43;27.90;15.70
11304;DHT22;5707;49.588;12.148;2023-06-01T12:25:57;27.20;15.70
11304;DHT22;5707;49.588;12.148;2023-06-01T12:28:24;27.00;15.90
11304;DHT22;5707;49.588;12.148;2023-06-01T12:31:11;27.30;16.60
11304;DHT22;5707;49.588;12.148;2023-06-01T12:33:39;27.50;15.00
11304;DHT22;5707;49.588;12.148;2023-06-01T12:36:06;27.40;14.60
11304;DHT22;5707;49.588;12.148;2023-06-01T12:38:36;27.40;14.20
11304;DHT22;5707;49.588;12.148;2023-06-01T12:41:10;27.40;15.80
11304;DHT22;5707;49.588;12.148;2023-06-01T12:43:37;27.50;13.10
11304;DHT22;5707;49.588;12.148;2023-06-01T12:46:03;27.60;13.70
11304;DHT22;5707;49.588;12.148;2023-06-01T12:48:33;27.70;11.70
11304;DHT22;5707;49.588;12.148;2023-06-01T12:51:00;27.80;13.40
11304;DHT22;5707;49.588;12.148;2023-06-01T12:53:27;28.00;14.30
11304;DHT22;5707;49.588;12.148;2023-06-01T12:55:52;27.90;11.30
11304;DHT22;5707;49.588;12.148;2023-06-01T12:58:18;27.80;11.80
11304;DHT22;5707;49.588;12.148;2023-06-01T13:00:44;27.80;11.80
11304;DHT22;5707;49.588;12.148;2023-06-01T13:03:09;27.90;15.20
11304;DHT22;5707;49.588;12.148;2023-06-01T13:05:35;28.10;13.80
11304;DHT22;5707;49.588;12.148;2023-06-01T13:08:00;28.10;12.30
11304;DHT22;5707;49.588;12.148;2023-06-01T13:10:27;28.30;11.10
11304;DHT22;5707;49.588;12.148;2023-06-01T13:12:54;28.30;6.40
11304;DHT22;5707;49.588;12.148;2023-06-01T13:15:21;28.20;6.60
11304;DHT22;5707;49.588;12.148;2023-06-01T13:17:46;28.10;8.20
11304;DHT22;5707;49.588;12.148;2023-06-01T13:20:12;28.30;7.00
11304;DHT22;5707;49.588;12.148;2023-06-01T13:22:42;28.40;8.40
11304;DHT22;5707;49.588;12.148;2023-06-01T13:25:08;28.30;8.30
11304;DHT22;5707;49.588;12.148;2023-06-01T13:27:34;28.30;17.00
11304;DHT22;5707;49.588;12.148;2023-06-01T13:30:00;28.40;16.10
11304;DHT22;5707;49.588;12.148;2023-06-01T13:32:26;28.40;9.60
11304;DHT22;5707;49.588;12.148;2023-06-01T13:34:52;28.40;12.70
11304;DHT22;5707;49.588;12.148;2023-06-01T13:37:18;28.50;11.00
11304;DHT22;5707;49.588;12.148;2023-06-01T13:39:44;28.40;9.10
11304;DHT22;5707;49.588;12.148;2023-06-01T13:42:09;28.00;9.60
11304;DHT22;5707;49.588;12.148;2023-06-01T13:44:35;28.00;11.00
11304;DHT22;5707;49.588;12.148;2023-06-01T13:47:00;28.30;15.20
11304;DHT22;5707;49.588;12.148;2023-06-01T13:49:27;28.40;9.60
11304;DHT22;5707;49.588;12.148;2023-06-01T13:51:52;28.20;11.70
11304;DHT22;5707;49.588;12.148;2023-06-01T13:54:18;28.30;10.80
11304;DHT22;5707;49.588;12.148;2023-06-01T13:56:44;28.10;10.60
11304;DHT22;5707;49.588;12.148;2023-06-01T13:59:09;28.10;10.40
11304;DHT22;5707;49.588;12.148;2023-06-01T14:01:35;28.20;12.60
11304;DHT22;5707;49.588;12.148;2023-06-01T14:04:01;28.30;13.70
11304;DHT22;5707;49.588;12.148;2023-06-01T14:06:26;28.40;11.50
11304;DHT22;5707;49.588;12.148;2023-06-01T14:08:52;28.40;11.10
11304;DHT22;5707;49.588;12.148;2023-06-01T14:11:18;28.20;11.00
11304;DHT22;5707;49.588;12.148;2023-06-01T14:13:43;28.00;11.10
11304;DHT22;5707;49.588;12.148;2023-06-01T14:16:09;28.00;14.50
11304;DHT22;5707;49.588;12.148;2023-06-01T14:18:34;28.30;12.40
11304;DHT22;5707;49.588;12.148;2023-06-01T14:21:00;28.40;12.50
11304;DHT22;5707;49.588;12.148;2023-06-01T14:23:26;28.40;12.40
11304;DHT22;5707;49.588;12.148;2023-06-01T14:25:51;28.40;12.20
11304;DHT22;5707;49.588;12.148;2023-06-01T14:28:17;28.40;12.10
11304;DHT22;5707;49.588;12.148;2023-06-01T14:30:42;28.40;12.00
11304;DHT22;5707;49.588;12.148;2023-06-01T14:33:08;28.50;12.10
11304;DHT22;5707;49.588;12.148;2023-06-01T14:35:33;28.60;12.20
11304;DHT22;5707;49.588;12.148;2023-06-01T14:37:59;28.80;12.90
11304;DHT22;5707;49.588;12.148;2023-06-01T14:40:25;28.80;12.90
11304;DHT22;5707;49.588;12.148;2023-06-01T14:42:50;28.80;12.60
11304;DHT22;5707;49.588;12.148;2023-06-01T14:45:16;28.80;13.00
11304;DHT22;5707;49.588;12.148;2023-06-01T14:47:44;28.80;12.30
11304;DHT22;5707;49.588;12.148;2023-06-01T14:50:10;28.80;12.00
11304;DHT22;5707;49.588;12.148;2023-06-01T14:52:35;29.00;14.20
11304;DHT22;5707;49.588;12.148;2023-06-01T14:55:01;29.20;16.90
11304;DHT22;5707;49.588;12.148;2023-06-01T14:57:27;29.30;13.90
11304;DHT22;5707;49.588;12.148;2023-06-01T14:59:52;29.20;16.60
11304;DHT22;5707;49.588;12.148;2023-06-01T15:02:18;29.20;12.30
11304;DHT22;5707;49.588;12.148;2023-06-01T15:04:44;29.20;13.10
11304;DHT22;5707;49.588;12.148;2023-06-01T15:07:10;29.30;12.20
11304;DHT22;5707;49.588;12.148;2023-06-01T15:09:36;29.20;12.50
11304;DHT22;5707;49.588;12.148;2023-06-01T15:12:01;29.30;15.30
11304;DHT22;5707;49.588;12.148;2023-06-01T15:14:27;29.50;12.40
11304;DHT22;5707;49.588;12.148;2023-06-01T15:16:53;29.50;12.70
11304;DHT22;5707;49.588;12.148;2023-06-01T15:19:18;29.50;13.70
11304;DHT22;5707;49.588;12.148;2023-06-01T15:21:44;29.60;13.60
11304;DHT22;5707;49.588;12.148;2023-06-01T15:24:10;29.70;11.90
11304;DHT22;5707;49.588;12.148;2023-06-01T15:26:36;30.50;12.60
11304;DHT22;5707;49.588;12.148;2023-06-01T15:29:02;31.40;11.70
11304;DHT22;5707;49.588;12.148;2023-06-01T15:31:28;32.20;11.50
11304;DHT22;5707;49.588;12.148;2023-06-01T15:33:53;32.60;9.90
11304;DHT22;5707;49.588;12.148;2023-06-01T15:36:19;32.60;10.40
11304;DHT22;5707;49.588;12.148;2023-06-01T15:38:45;33.20;9.90
11304;DHT22;5707;49.588;12.148;2023-06-01T15:41:10;33.50;9.30
11304;DHT22;5707;49.588;12.148;2023-06-01T15:43:36;34.00;9.10
11304;DHT22;5707;49.588;12.148;2023-06-01T15:46:05;34.40;7.70
11304;DHT22;5707;49.588;12.148;2023-06-01T15:48:31;34.60;7.20
11304;DHT22;5707;49.588;12.148;2023-06-01T15:50:57;34.80;6.70
11304;DHT22;5707;49.588;12.148;2023-06-01T15:53:23;35.30;7.80
11304;DHT22;5707;49.588;12.148;2023-06-01T15:55:48;36.00;6.30
11304;DHT22;5707;49.588;12.148;2023-06-01T15:58:14;36.40;5.50
11304;DHT22;5707;49.588;12.148;2023-06-01T16:00:39;36.70;5.20
11304;DHT22;5707;49.588;12.148;2023-06-01T16:03:05;37.00;4.60
11304;DHT22;5707;49.588;12.148;2023-06-01T16:05:31;37.00;4.90
11304;DHT22;5707;49.588;12.148;2023-06-01T16:07:57;36.80;4.20
11304;DHT22;5707;49.588;12.148;2023-06-01T16:10:23;36.90;6.20
11304;DHT22;5707;49.588;12.148;2023-06-01T16:12:49;36.70;5.40
11304;DHT22;5707;49.588;12.148;2023-06-01T16:15:14;37.00;6.60
11304;DHT22;5707;49.588;12.148;2023-06-01T16:17:40;37.60;4.90
11304;DHT22;5707;49.588;12.148;2023-06-01T16:20:06;37.90;2.60
11304;DHT22;5707;49.588;12.148;2023-06-01T16:22:32;37.80;4.50
11304;DHT22;5707;49.588;12.148;2023-06-01T16:24:59;37.80;5.20
11304;DHT22;5707;49.588;12.148;2023-06-01T16:27:25;37.60;4.20